Time;durP1;ratioP1;P1;durP2;ratioP2;P2;SDS_P1;SDS_P2;PMS_P1;PMS_P2;Temp;Humidity;BMP_temperature;BMP_pressure;BME280_temperature;BME280_humidity;BME280_pressure;Samples;Min_cycle;Max_cycle;Signal;HPM_P1;HPM_P2
2022/10/24 00:00:46;;;;;;;;;0.00;0.00;;;;;19.37;100.00;100296.38;5038198;28;45558;-76
2022/10/24 00:03:13;;;;;;;;;0.00;0.00;;;;;19.38;100.00;100276.69;5039238;28;45395;-76
2022/10/24 00:05:43;;;;;;;;;0.00;0.00;;;;;19.37;100.00;100299.91;5039427;28;45683;-77
2022/10/24 00:08:09;;;;;;;;;0.00;0.00;;;;;19.35;100.00;100317.84;5056701;28;45229;-77
2022/10/24 00:10:35;;;;;;;;;0.67;0.67;;;;;19.35;100.00;100307.13;5057317;28;45501;-76
2022/10/24 00:13:01;;;;;;;;;2.67;0.00;;;;;19.33;100.00;100305.41;5022274;28;45607;-76
2022/10/24 00:15:26;;;;;;;;;0.00;0.00;;;;;19.34;100.00;100310.75;5038650;28;46597;-76
2022/10/24 00:17:52;;;;;;;;;0.00;0.00;;;;;19.31;100.00;100308.16;5037900;28;63677;-77
2022/10/24 00:20:17;;;;;;;;;0.00;0.00;;;;;19.29;100.00;100302.00;5037782;28;59756;-76
2022/10/24 00:22:42;;;;;;;;;1.33;0.33;;;;;19.28;100.00;100294.88;5056844;28;45426;-76
2022/10/24 00:25:08;;;;;;;;;2.33;0.00;;;;;19.28;100.00;100299.34;5038075;28;65867;-76
2022/10/24 00:27:34;;;;;;;;;0.33;0.00;;;;;19.24;100.00;100306.63;5056468;28;45330;-76
2022/10/24 00:30:00;;;;;;;;;1.00;0.00;;;;;19.21;100.00;100292.44;5038280;28;45452;-76
2022/10/24 00:32:25;;;;;;;;;0.67;0.00;;;;;19.22;100.00;100305.78;5055914;28;58655;-77
2022/10/24 00:34:50;;;;;;;;;3.00;0.00;;;;;19.20;100.00;100310.31;5038052;28;45820;-77
2022/10/24 00:37:16;;;;;;;;;0.00;0.00;;;;;19.19;100.00;100302.34;5055807;28;61662;-77
2022/10/24 00:39:41;;;;;;;;;0.00;0.00;;;;;19.18;100.00;100306.81;5037443;28;58700;-76
2022/10/24 00:42:07;;;;;;;;;0.67;0.00;;;;;19.17;100.00;100306.84;5056307;28;45620;-77
2022/10/24 00:44:37;;;;;;;;;0.00;0.00;;;;;19.12;100.00;100309.66;5056624;28;45711;-76
2022/10/24 00:47:11;;;;;;;;;0.00;0.00;;;;;19.14;100.00;100318.53;5038115;28;45428;-76
2022/10/24 00:49:48;;;;;;;;;0.00;0.00;;;;;19.11;100.00;100326.66;5056433;28;45345;-76
2022/10/24 00:52:17;;;;;;;;;0.00;0.00;;;;;19.08;100.00;100330.31;5038138;28;45678;-77
2022/10/24 00:54:42;;;;;;;;;2.00;0.33;;;;;19.05;100.00;100330.41;5056429;28;46276;-76
2022/10/24 00:57:19;;;;;;;;;0.00;0.00;;;;;19.05;100.00;100327.72;5054269;28;66983;-77
2022/10/24 00:59:47;;;;;;;;;0.00;0.00;;;;;19.04;100.00;100333.16;5038446;28;45347;-76
2022/10/24 01:02:12;;;;;;;;;0.67;0.00;;;;;19.02;100.00;100330.53;5055769;28;45427;-76
2022/10/24 01:04:38;;;;;;;;;0.00;0.00;;;;;19.00;100.00;100335.03;5037356;28;63357;-76
2022/10/24 01:07:16;;;;;;;;;0.00;0.00;;;;;18.98;100.00;100344.03;5038037;28;45365;-76
2022/10/24 01:10:01;;;;;;;;;2.67;0.00;;;;;18.97;100.00;100347.66;5038416;28;45502;-77
2022/10/24 01:12:41;;;;;;;;;0.00;0.00;;;;;18.92;100.00;100352.28;5055725;28;45237;-76
2022/10/24 01:15:22;;;;;;;;;0.00;0.00;;;;;18.88;100.00;100359.50;5037995;28;46236;-76
2022/10/24 01:18:06;;;;;;;;;0.00;0.00;;;;;18.88;100.00;100369.31;5038064;28;45677;-77
2022/10/24 01:20:37;;;;;;;;;3.33;0.00;;;;;18.91;100.00;100366.53;5055353;28;45313;-77
2022/10/24 01:23:30;;;;;;;;;2.00;0.00;;;;;18.91;100.00;100366.53;5056102;28;45480;-77
2022/10/24 01:26:17;;;;;;;;;0.00;0.00;;;;;18.93;100.00;100378.97;5055768;28;45335;-76
2022/10/24 01:29:15;;;;;;;;;1.00;0.00;;;;;18.90;100.00;100371.03;5055668;28;45529;-76
2022/10/24 01:31:49;;;;;;;;;4.00;0.00;;;;;18.89;100.00;100371.94;5054046;28;45557;-76
2022/10/24 01:34:25;;;;;;;;;0.33;0.00;;;;;18.86;100.00;100371.19;5021424;28;45708;-76
2022/10/24 01:36:56;;;;;;;;;0.00;0.00;;;;;18.79;100.00;100379.38;5055545;28;46028;-76
2022/10/24 01:39:22;;;;;;;;;1.33;0.00;;;;;18.76;100.00;100373.25;5055525;28;45525;-77
2022/10/24 01:41:49;;;;;;;;;0.67;0.67;;;;;18.73;100.00;100376.00;5036956;28;63038;-77
2022/10/24 01:44:22;;;;;;;;;0.67;0.00;;;;;18.73;100.00;100376.00;5038143;28;45522;-77
2022/10/24 01:46:54;;;;;;;;;2.00;0.00;;;;;18.70;100.00;100376.13;5037359;28;46464;-76
2022/10/24 01:49:21;;;;;;;;;0.33;0.00;;;;;18.69;100.00;100372.53;5037752;28;45544;-76
2022/10/24 01:51:50;;;;;;;;;0.00;0.00;;;;;18.66;100.00;100358.38;5037834;28;45315;-76
2022/10/24 01:54:16;;;;;;;;;1.00;0.67;;;;;18.64;100.00;100366.41;5020726;28;45522;-76
2022/10/24 01:56:41;;;;;;;;;0.00;0.00;;;;;18.65;100.00;100372.66;5037325;28;46350;-76
2022/10/24 01:59:29;;;;;;;;;0.00;0.00;;;;;18.61;100.00;100366.53;5054563;28;60299;-76
2022/10/24 02:02:05;;;;;;;;;1.33;0.00;;;;;18.61;100.00;100365.66;5055324;28;45561;-76
2022/10/24 02:04:32;;;;;;;;;2.00;1.00;;;;;18.58;100.00;100366.59;5055343;28;45332;-77
2022/10/24 02:07:00;;;;;;;;;1.33;0.00;;;;;18.57;100.00;100359.50;5036756;28;45742;-76
2022/10/24 02:09:25;;;;;;;;;2.00;0.00;;;;;18.55;100.00;100362.25;5057766;28;45326;-76
2022/10/24 02:11:51;;;;;;;;;0.33;0.00;;;;;18.54;100.00;100363.16;5041075;28;45400;-76
2022/10/24 02:14:26;;;;;;;;;2.00;0.00;;;;;18.50;100.00;100348.13;5040530;28;45264;-77
2022/10/24 02:16:53;;;;;;;;;2.00;1.00;;;;;18.50;100.00;100340.09;5040846;28;47569;-76
2022/10/24 02:19:18;;;;;;;;;1.33;0.00;;;;;18.49;100.00;100342.84;5040533;28;45261;-76
2022/10/24 02:21:51;;;;;;;;;1.00;0.00;;;;;18.44;100.00;100339.41;5039868;28;55999;-77
2022/10/24 02:24:19;;;;;;;;;0.67;0.00;;;;;18.42;100.00;100335.88;5058700;28;45289;-76
2022/10/24 02:26:57;;;;;;;;;0.00;0.00;;;;;18.40;100.00;100340.41;5039272;28;46554;-76
2022/10/24 02:29:33;;;;;;;;;1.00;1.00;;;;;18.39;100.00;100330.66;5058650;28;45537;-76
2022/10/24 02:31:58;;;;;;;;;0.00;0.00;;;;;18.37;100.00;100336.03;5040538;28;45491;-76
2022/10/24 02:34:27;;;;;;;;;1.00;1.00;;;;;18.35;100.00;100339.66;5040436;28;54093;-76
2022/10/24 02:36:54;;;;;;;;;2.33;1.00;;;;;18.32;100.00;100321.91;5039802;28;46722;-77
2022/10/24 02:39:21;;;;;;;;;5.00;0.67;;;;;18.32;100.00;100333.50;5058261;28;45416;-76
2022/10/24 02:41:48;;;;;;;;;0.00;0.00;;;;;18.31;100.00;100326.38;5039611;28;58026;-77
2022/10/24 02:44:15;;;;;;;;;1.33;0.00;;;;;18.29;100.00;100325.56;5058640;28;45361;-76
2022/10/24 02:46:41;;;;;;;;;3.00;0.00;;;;;18.27;100.00;100323.88;5039357;28;47959;-76
2022/10/24 02:49:07;;;;;;;;;2.67;1.00;;;;;18.26;100.00;100325.63;5039958;28;45354;-78
2022/10/24 02:51:36;;;;;;;;;1.00;0.00;;;;;18.24;100.00;100322.16;5057961;28;45369;-78
2022/10/24 02:54:02;;;;;;;;;3.00;0.67;;;;;18.22;100.00;100315.97;5039871;28;45643;-77
2022/10/24 02:56:28;;;;;;;;;2.67;0.00;;;;;18.21;100.00;100324.88;5058367;28;46144;-77
2022/10/24 02:58:53;;;;;;;;;3.67;1.00;;;;;18.18;100.00;100322.31;5039772;28;45361;-76
2022/10/24 03:01:19;;;;;;;;;5.33;0.33;;;;;18.20;100.00;100335.63;5039297;28;49108;-76
2022/10/24 03:03:44;;;;;;;;;2.67;0.00;;;;;18.18;100.00;100326.78;5039381;28;54453;-77
2022/10/24 03:06:10;;;;;;;;;0.33;0.00;;;;;18.19;100.00;100337.44;5058149;28;46708;-76
2022/10/24 03:08:35;;;;;;;;;2.67;0.00;;;;;18.19;100.00;100331.22;5057452;28;49635;-76
2022/10/24 03:11:01;;;;;;;;;1.67;0.33;;;;;18.18;100.00;100332.13;5038939;28;60288;-76
2022/10/24 03:13:26;;;;;;;;;5.00;0.00;;;;;18.17;100.00;100343.75;5057122;28;55653;-76
2022/10/24 03:15:51;;;;;;;;;1.00;1.00;;;;;18.17;100.00;100349.09;5057480;28;46915;-76
2022/10/24 03:18:17;;;;;;;;;2.00;0.67;;;;;18.16;100.00;100352.66;5038162;28;60840;-76
2022/10/24 03:20:42;;;;;;;;;3.00;0.00;;;;;18.14;100.00;100346.50;5057100;28;45354;-77
2022/10/24 03:23:08;;;;;;;;;3.00;1.00;;;;;18.15;100.00;100346.44;5056949;28;57577;-77
2022/10/24 03:25:33;;;;;;;;;3.00;1.00;;;;;18.12;100.00;100349.22;5038180;28;70914;-76
2022/10/24 03:27:58;;;;;;;;;6.00;0.00;;;;;18.09;100.00;100351.97;5039283;28;53917;-76
2022/10/24 03:30:24;;;;;;;;;2.00;0.00;;;;;18.11;100.00;100339.47;5057142;28;58706;-76
2022/10/24 03:32:49;;;;;;;;;5.00;1.00;;;;;18.11;100.00;100343.91;5039702;28;45622;-76
2022/10/24 03:35:15;;;;;;;;;0.00;0.00;;;;;18.06;100.00;100331.56;5057163;28;45847;-77
2022/10/24 03:37:41;;;;;;;;;0.00;0.00;;;;;18.10;100.00;100352.84;5057591;28;45311;-76
2022/10/24 03:40:08;;;;;;;;;1.00;0.00;;;;;18.10;100.00;100359.06;5057363;28;45284;-76
2022/10/24 03:42:33;;;;;;;;;0.00;0.00;;;;;18.05;100.00;100352.97;5022891;28;45537;-76
2022/10/24 03:44:59;;;;;;;;;6.00;0.00;;;;;18.06;100.00;100370.78;5038651;28;62927;-76
2022/10/24 03:47:24;;;;;;;;;1.00;1.00;;;;;18.02;100.00;100353.94;5038639;28;48909;-76
2022/10/24 03:49:49;;;;;;;;;3.00;0.00;;;;;18.04;100.00;100377.94;5056888;28;54511;-77
2022/10/24 03:52:15;;;;;;;;;3.00;1.00;;;;;18.02;100.00;100372.63;5038718;28;61158;-76
2022/10/24 03:54:40;;;;;;;;;10.00;1.00;;;;;18.01;100.00;100373.56;5056987;28;45848;-77
2022/10/24 03:57:08;;;;;;;;;4.33;1.00;;;;;17.99;100.00;100371.84;5056765;28;45489;-76
2022/10/24 03:59:33;;;;;;;;;2.33;0.00;;;;;18.00;100.00;100373.56;5038929;28;45459;-76
2022/10/24 04:02:00;;;;;;;;;1.33;0.00;;;;;17.97;100.00;100384.38;5056433;28;54428;-76
2022/10/24 04:04:25;;;;;;;;;2.33;1.00;;;;;17.98;100.00;100391.47;5056908;28;46017;-76
2022/10/24 04:06:50;;;;;;;;;1.00;0.00;;;;;17.96;100.00;100394.19;5056323;28;51702;-77
2022/10/24 04:09:16;;;;;;;;;4.00;1.00;;;;;17.96;100.00;100401.31;5038301;28;60863;-76
2022/10/24 04:11:41;;;;;;;;;4.33;0.00;;;;;17.97;100.00;100392.38;5038279;28;55179;-77
2022/10/24 04:14:08;;;;;;;;;1.00;0.00;;;;;17.97;100.00;100405.75;5055243;28;63672;-77
2022/10/24 04:16:33;;;;;;;;;1.33;1.00;;;;;17.97;100.00;100411.09;5039116;28;45359;-76
2022/10/24 04:18:59;;;;;;;;;3.00;1.00;;;;;17.97;100.00;100414.63;5056806;28;45331;-77
2022/10/24 04:21:24;;;;;;;;;4.00;1.33;;;;;17.98;100.00;100415.50;5037470;28;57935;-77
2022/10/24 04:23:49;;;;;;;;;2.33;0.00;;;;;17.96;100.00;100418.22;5056229;28;54767;-76
2022/10/24 04:26:16;;;;;;;;;3.00;0.00;;;;;17.97;100.00;100417.28;5038487;28;45511;-76
2022/10/24 04:28:41;;;;;;;;;3.33;1.00;;;;;17.97;100.00;100419.09;5038689;28;45293;-76
2022/10/24 04:31:07;;;;;;;;;3.33;0.00;;;;;17.94;100.00;100412.03;5037859;28;45681;-76
2022/10/24 04:33:32;;;;;;;;;2.67;1.00;;;;;17.91;100.00;100416.59;5037577;28;63979;-77
2022/10/24 04:35:57;;;;;;;;;2.00;2.00;;;;;17.93;100.00;100420.09;5056405;28;45326;-76
2022/10/24 04:38:23;;;;;;;;;2.00;0.33;;;;;17.92;100.00;100434.38;5055750;28;62082;-76
2022/10/24 04:40:50;;;;;;;;;0.00;0.00;;;;;17.89;100.00;100421.06;5055880;28;50145;-76
2022/10/24 04:43:15;;;;;;;;;1.00;1.00;;;;;17.88;100.00;100438.91;5038454;28;47455;-76
2022/10/24 04:45:41;;;;;;;;;3.00;1.00;;;;;17.85;100.00;100439.00;5056206;28;45280;-76
2022/10/24 04:48:06;;;;;;;;;2.00;0.00;;;;;17.86;100.00;100438.06;5037688;28;45371;-76
2022/10/24 04:50:31;;;;;;;;;3.33;1.00;;;;;17.82;100.00;100439.06;5037783;28;59477;-77
2022/10/24 04:52:57;;;;;;;;;0.00;0.00;;;;;17.85;100.00;100455.00;5054934;28;65986;-77
2022/10/24 04:55:22;;;;;;;;;5.67;0.00;;;;;17.81;100.00;100450.66;5161361;22;61619;-75
2022/10/24 04:57:47;;;;;;;;;2.00;0.33;;;;;17.83;100.00;100458.63;5059081;28;59717;-74
2022/10/24 05:00:13;;;;;;;;;0.67;0.00;;;;;17.81;100.00;100456.00;5037149;28;61316;-76
2022/10/24 05:02:38;;;;;;;;;2.33;0.00;;;;;17.83;100.00;100467.50;5055416;28;46696;-76
2022/10/24 05:05:05;;;;;;;;;5.00;0.33;;;;;17.82;100.00;100472.91;5037354;28;54301;-75
2022/10/24 05:07:30;;;;;;;;;3.67;0.00;;;;;17.81;100.00;100482.72;5055979;28;45367;-75
2022/10/24 05:09:55;;;;;;;;;2.00;1.00;;;;;17.80;100.00;100483.63;5055956;28;50234;-75
2022/10/24 05:12:21;;;;;;;;;2.00;0.00;;;;;17.77;100.00;100481.03;5055734;28;46100;-74
2022/10/24 05:14:46;;;;;;;;;7.33;2.67;;;;;17.74;100.00;100484.66;5037275;28;67308;-75
2022/10/24 05:17:13;;;;;;;;;6.00;1.00;;;;;17.73;100.00;100490.88;5036811;28;60482;-75
2022/10/24 05:19:38;;;;;;;;;7.67;1.00;;;;;17.74;100.00;100490.00;5047918;28;45494;-75
2022/10/24 05:22:04;;;;;;;;;3.00;2.00;;;;;17.74;100.00;100489.13;5055174;28;45845;-75
2022/10/24 05:24:29;;;;;;;;;3.33;1.00;;;;;17.72;100.00;100505.16;5055110;28;60740;-75
2022/10/24 05:26:55;;;;;;;;;1.67;0.00;;;;;17.72;100.00;100497.16;5055366;28;54819;-76
2022/10/24 05:29:20;;;;;;;;;1.00;1.00;;;;;17.70;100.00;100509.63;5055203;28;55142;-76
2022/10/24 05:31:45;;;;;;;;;2.00;1.00;;;;;17.69;100.00;100513.22;5037507;28;46564;-75
2022/10/24 05:34:11;;;;;;;;;1.00;1.00;;;;;17.67;100.00;100506.16;5019046;28;69495;-75
2022/10/24 05:36:36;;;;;;;;;0.00;0.00;;;;;17.67;100.00;100509.69;5055282;28;52438;-75
2022/10/24 05:39:02;;;;;;;;;1.00;1.00;;;;;17.69;100.00;100523.91;5055199;28;46772;-75
2022/10/24 05:41:27;;;;;;;;;2.00;1.00;;;;;17.69;100.00;100523.03;5030144;28;46729;-75
2022/10/24 05:43:52;;;;;;;;;1.00;0.00;;;;;17.68;100.00;100514.13;5037578;28;45458;-74
2022/10/24 05:46:18;;;;;;;;;4.00;2.00;;;;;17.70;100.00;100514.97;5058029;28;45342;-76
2022/10/24 05:48:43;;;;;;;;;2.33;0.00;;;;;17.70;100.00;100514.09;5059142;28;45284;-75
2022/10/24 05:51:09;;;;;;;;;3.00;1.00;;;;;17.72;100.00;100513.16;5057376;28;45836;-75
2022/10/24 05:53:34;;;;;;;;;8.00;1.00;;;;;17.70;100.00;100509.63;5039989;28;45467;-74
2022/10/24 05:55:59;;;;;;;;;5.67;1.67;;;;;17.70;100.00;100508.75;5039689;28;63123;-75
2022/10/24 05:58:26;;;;;;;;;6.00;1.67;;;;;17.70;100.00;100519.44;5056907;28;55018;-76
2022/10/24 06:00:52;;;;;;;;;4.00;1.00;;;;;17.68;100.00;100511.44;5023877;28;46637;-75
2022/10/24 06:03:17;;;;;;;;;6.00;2.00;;;;;17.68;100.00;100523.91;5056680;28;45558;-75
2022/10/24 06:05:42;;;;;;;;;2.33;1.00;;;;;17.69;100.00;100528.38;5055348;28;57193;-75
2022/10/24 06:08:08;;;;;;;;;0.00;0.00;;;;;17.69;100.00;100523.03;5058277;28;56566;-75
2022/10/24 06:10:34;;;;;;;;;6.00;1.00;;;;;17.67;100.00;100523.03;5039298;28;45668;-74
2022/10/24 06:13:00;;;;;;;;;4.33;0.67;;;;;17.68;100.00;100529.25;5057908;28;45366;-75
2022/10/24 06:15:25;;;;;;;;;6.00;1.33;;;;;17.68;100.00;100513.25;5058359;28;48437;-75
2022/10/24 06:17:50;;;;;;;;;3.67;1.00;;;;;17.68;100.00;100511.44;5058318;28;45328;-74
2022/10/24 06:20:16;;;;;;;;;3.33;0.00;;;;;17.65;100.00;100518.66;5057396;28;64614;-75
2022/10/24 06:22:44;;;;;;;;;1.00;1.00;;;;;17.70;100.00;100519.44;5056992;28;45303;-76
2022/10/24 06:25:10;;;;;;;;;5.33;2.00;;;;;17.70;100.00;100514.97;5055958;28;45304;-75
2022/10/24 06:27:35;;;;;;;;;5.33;1.00;;;;;17.72;100.00;100528.28;5057242;28;45506;-76
2022/10/24 06:30:01;;;;;;;;;2.33;1.00;;;;;17.71;100.00;100521.19;5056484;28;66403;-75
2022/10/24 06:32:26;;;;;;;;;3.00;2.00;;;;;17.69;100.00;100525.69;5056458;28;45459;-75
2022/10/24 06:34:51;;;;;;;;;1.00;1.00;;;;;17.68;100.00;100526.59;5058022;28;61368;-75
2022/10/24 06:37:17;;;;;;;;;6.00;0.00;;;;;17.66;100.00;100536.44;5058487;28;54093;-76
2022/10/24 06:39:42;;;;;;;;;4.00;0.00;;;;;17.62;100.00;100548.97;5040702;28;46076;-75
2022/10/24 06:42:07;;;;;;;;;0.67;0.00;;;;;17.62;100.00;100546.28;5040869;28;45419;-76
2022/10/24 06:44:33;;;;;;;;;5.00;1.33;;;;;17.62;100.00;100546.28;5058610;28;45217;-77
2022/10/24 06:46:58;;;;;;;;;4.33;0.00;;;;;17.61;100.00;100552.56;5057740;28;45472;-77
2022/10/24 06:49:24;;;;;;;;;5.00;1.00;;;;;17.61;100.00;100559.69;5038355;28;67245;-76
2022/10/24 06:51:49;;;;;;;;;3.33;1.00;;;;;17.61;100.00;100559.69;5057001;28;45450;-76
2022/10/24 06:54:15;;;;;;;;;4.00;0.00;;;;;17.60;100.00;100571.28;5039413;28;45586;-75
2022/10/24 06:56:40;;;;;;;;;2.00;1.00;;;;;17.62;100.00;100585.47;5039928;28;45697;-75
2022/10/24 06:59:10;;;;;;;;;5.67;1.00;;;;;17.62;100.00;100583.69;5056021;28;69087;-76
2022/10/24 07:01:35;;;;;;;;;1.00;1.00;;;;;17.59;100.00;100575.75;5036381;28;45603;-74
2022/10/24 07:04:01;;;;;;;;;1.33;0.00;;;;;17.59;100.00;100590.91;5065448;28;45651;-74
2022/10/24 07:06:28;;;;;;;;;6.00;1.00;;;;;17.61;100.00;100597.06;5048410;28;45456;-73
2022/10/24 07:08:55;;;;;;;;;4.67;0.33;;;;;17.62;100.00;100606.84;5025955;28;46735;-76
2022/10/24 07:11:21;;;;;;;;;1.00;1.00;;;;;17.63;100.00;100603.25;5016149;28;45602;-73
2022/10/24 07:13:46;;;;;;;;;3.00;1.00;;;;;17.72;100.00;100617.31;5034016;28;45433;-74
2022/10/24 07:16:12;;;;;;;;;2.67;1.00;;;;;17.79;100.00;100624.31;5030161;28;45729;-74
2022/10/24 07:18:37;;;;;;;;;2.67;1.00;;;;;17.82;100.00;100619.78;5044328;28;46662;-73
2022/10/24 07:21:05;;;;;;;;;6.67;1.00;;;;;17.88;100.00;100620.53;5046376;28;45463;-73
2022/10/24 07:23:31;;;;;;;;;4.00;1.00;;;;;17.91;100.00;100627.59;5036093;28;45514;-73
2022/10/24 07:26:04;;;;;;;;;2.00;0.00;;;;;17.92;100.00;100624.03;5050075;28;45957;-73
2022/10/24 07:28:30;;;;;;;;;2.00;1.33;;;;;17.93;100.00;100613.28;5031117;28;46731;-74
2022/10/24 07:30:56;;;;;;;;;4.00;1.00;;;;;17.95;100.00;100634.63;5027380;28;45586;-76
2022/10/24 07:33:21;;;;;;;;;4.33;2.00;;;;;17.90;100.00;100621.41;5043300;28;56223;-75
2022/10/24 07:35:46;;;;;;;;;2.33;1.00;;;;;17.88;100.00;100625.88;5047857;28;45812;-74
2022/10/24 07:38:12;;;;;;;;;4.67;2.00;;;;;17.79;100.00;100618.97;5050104;28;65935;-74
2022/10/24 07:40:37;;;;;;;;;1.33;0.67;;;;;17.72;100.00;100630.66;5055634;28;56526;-74
2022/10/24 07:43:02;;;;;;;;;3.33;1.33;;;;;17.65;100.00;100630.81;5031837;28;55572;-74
2022/10/24 07:45:28;;;;;;;;;4.33;1.67;;;;;17.60;100.00;100622.91;5051132;28;45478;-75
2022/10/24 07:47:54;;;;;;;;;4.67;1.00;;;;;17.60;100.00;100638.03;5033255;28;46039;-75
2022/10/24 07:50:19;;;;;;;;;5.33;1.33;;;;;17.58;100.00;100635.41;5034343;28;45501;-74
2022/10/24 07:52:44;;;;;;;;;0.00;0.00;;;;;17.60;100.00;100635.38;5055342;28;52004;-75
2022/10/24 07:55:10;;;;;;;;;2.33;1.00;;;;;17.58;100.00;100645.19;5055087;28;58522;-74
2022/10/24 07:57:35;;;;;;;;;2.00;0.67;;;;;17.54;100.00;100647.94;5035223;28;46982;-74
2022/10/24 08:00:01;;;;;;;;;3.00;1.00;;;;;17.56;100.00;100650.56;5053076;28;59369;-74
2022/10/24 08:02:26;;;;;;;;;2.67;2.00;;;;;17.55;100.00;100651.47;5053973;28;45740;-76
2022/10/24 08:04:51;;;;;;;;;5.00;1.00;;;;;17.55;100.00;100648.81;5052319;28;45563;-74
2022/10/24 08:07:17;;;;;;;;;6.00;1.00;;;;;17.58;100.00;100659.44;5035844;28;68915;-75
2022/10/24 08:09:44;;;;;;;;;4.67;0.00;;;;;17.60;100.00;100660.28;5036339;28;65246;-77
2022/10/24 08:12:10;;;;;;;;;5.00;3.00;;;;;17.62;100.00;100644.22;5033706;28;45530;-78
2022/10/24 08:14:37;;;;;;;;;5.33;0.67;;;;;17.61;100.00;100664.69;5034569;28;45497;-76
2022/10/24 08:17:03;;;;;;;;;3.00;1.00;;;;;17.65;100.00;100671.75;5035589;28;46714;-75
2022/10/24 08:19:29;;;;;;;;;5.00;1.00;;;;;17.73;100.00;100653.78;5036088;28;45529;-75
2022/10/24 08:21:54;;;;;;;;;2.00;0.67;;;;;17.75;100.00;100668.00;5043454;28;47309;-75
2022/10/24 08:24:20;;;;;;;;;1.00;1.00;;;;;17.82;100.00;100683.91;5049194;28;45507;-77
2022/10/24 08:26:46;;;;;;;;;1.33;1.00;;;;;17.84;100.00;100664.25;5046688;28;59931;-75
2022/10/24 08:29:13;;;;;;;;;1.00;1.00;;;;;17.89;100.00;100666.81;5051055;28;45423;-76
2022/10/24 08:31:39;;;;;;;;;1.33;1.33;;;;;17.97;100.00;100678.22;5033344;28;45567;-75
2022/10/24 08:34:05;;;;;;;;;4.67;1.67;;;;;17.98;100.00;100678.19;5030232;28;45509;-76
2022/10/24 08:36:33;;;;;;;;;3.00;0.00;;;;;18.00;100.00;100678.13;5066472;28;48258;-74
2022/10/24 08:38:59;;;;;;;;;3.67;1.00;;;;;18.04;100.00;100674.50;5031560;28;45533;-74
2022/10/24 08:41:54;;;;;;;;;4.00;1.00;;;;;18.13;100.00;100695.69;5029488;28;45292;-76
2022/10/24 08:44:28;;;;;;;;;5.33;1.00;;;;;18.20;100.00;100694.63;5026008;28;45485;-74
2022/10/24 08:47:26;;;;;;;;;4.67;0.33;;;;;18.17;100.00;100684.00;5035293;28;47657;-75
2022/10/24 08:50:14;;;;;;;;;4.00;1.33;;;;;18.12;100.00;100677.00;5029513;28;46648;-75
2022/10/24 08:52:47;;;;;;;;;4.33;1.00;;;;;18.12;100.00;100690.38;5051589;28;46539;-75
2022/10/24 08:55:25;;;;;;;;;3.33;0.33;;;;;18.16;100.00;100697.38;5032187;28;45461;-76
2022/10/24 08:57:53;;;;;;;;;2.67;1.00;;;;;18.27;100.00;100708.75;5034026;28;46742;-76
2022/10/24 09:00:24;;;;;;;;;5.67;1.00;;;;;18.41;100.00;100692.38;5045972;28;45492;-76
2022/10/24 09:02:55;;;;;;;;;2.00;1.00;;;;;18.51;100.00;100701.94;5048964;28;47113;-75
2022/10/24 09:05:34;;;;;;;;;1.67;1.67;;;;;18.56;100.00;100705.38;5033655;28;45589;-76
2022/10/24 09:08:20;;;;;;;;;5.00;1.00;;;;;18.67;100.00;100692.63;5019694;28;47806;-75
2022/10/24 09:11:05;;;;;;;;;0.67;0.33;;;;;18.77;100.00;100696.88;5010894;28;45603;-74
2022/10/24 09:13:34;;;;;;;;;7.33;2.33;;;;;18.87;100.00;100710.91;5035515;28;45534;-75
2022/10/24 09:15:59;;;;;;;;;3.67;0.33;;;;;18.94;100.00;100709.81;5036924;28;45526;-75
2022/10/24 09:18:38;;;;;;;;;3.33;0.33;;;;;18.94;100.00;100703.59;5038595;28;46616;-75
2022/10/24 09:21:08;;;;;;;;;2.00;2.00;;;;;18.92;100.00;100706.31;5038909;28;45339;-76
2022/10/24 09:23:36;;;;;;;;;5.67;1.67;;;;;18.91;100.00;100717.94;5071835;28;45546;-75
2022/10/24 09:26:04;;;;;;;;;2.33;0.00;;;;;18.97;100.00;100708.88;5039108;28;47166;-76
2022/10/24 09:28:30;;;;;;;;;2.00;1.33;;;;;19.04;100.00;100726.53;5040951;28;46750;-75
2022/10/24 09:30:55;;;;;;;;;4.33;3.00;;;;;19.06;100.00;100728.22;5039701;28;45281;-75
2022/10/24 09:33:26;;;;;;;;;6.00;2.00;;;;;19.08;100.00;100722.84;5036015;28;45749;-76
2022/10/24 09:35:54;;;;;;;;;5.00;1.67;;;;;19.07;100.00;100721.09;5057886;28;45497;-76
2022/10/24 09:38:35;;;;;;;;;2.67;0.00;;;;;18.98;100.00;100722.19;5034329;28;45750;-76
2022/10/24 09:41:04;;;;;;;;;2.00;2.00;;;;;19.00;100.00;100727.50;5039364;28;45542;-76
2022/10/24 09:43:49;;;;;;;;;4.00;2.00;;;;;18.97;100.00;100735.63;5054114;28;47272;-74
2022/10/24 09:46:43;;;;;;;;;2.33;1.00;;;;;18.93;100.00;100737.50;5055523;28;45261;-78
2022/10/24 09:49:13;;;;;;;;;7.33;1.00;;;;;18.88;100.00;100731.38;5019473;28;48514;-76
2022/10/24 09:51:41;;;;;;;;;5.00;1.33;;;;;18.90;100.00;100740.22;5053770;28;45379;-75
2022/10/24 09:54:28;;;;;;;;;2.00;1.00;;;;;19.02;100.00;100742.63;5038119;28;45576;-77
2022/10/24 09:57:04;;;;;;;;;2.00;1.00;;;;;19.10;100.00;100748.66;5055619;28;45515;-75
2022/10/24 09:59:35;;;;;;;;;4.00;1.33;;;;;19.16;100.00;100744.94;5038800;28;45931;-77
2022/10/24 10:02:09;;;;;;;;;4.67;1.33;;;;;19.22;100.00;100743.88;5051980;28;45497;-76
2022/10/24 10:04:35;;;;;;;;;2.33;0.00;;;;;19.19;100.00;100739.50;5033006;28;45533;-75
2022/10/24 10:07:08;;;;;;;;;3.67;0.67;;;;;19.17;100.00;100738.66;5051114;28;45538;-74
2022/10/24 10:09:40;;;;;;;;;2.00;0.33;;;;;19.19;100.00;100750.22;5037373;28;49074;-75
2022/10/24 10:12:05;;;;;;;;;2.33;0.33;;;;;19.22;100.00;100757.28;5037281;28;45509;-74
2022/10/24 10:14:31;;;;;;;;;3.33;1.00;;;;;19.23;100.00;100764.38;5054175;28;45332;-75
2022/10/24 10:17:03;;;;;;;;;2.00;0.67;;;;;19.27;100.00;100758.03;5057371;28;45593;-74
2022/10/24 10:19:33;;;;;;;;;2.00;0.00;;;;;19.30;100.00;100769.56;5020191;28;47701;-74
2022/10/24 10:22:04;;;;;;;;;2.33;1.33;;;;;19.29;100.00;100765.13;5038129;28;45419;-76
2022/10/24 10:24:38;;;;;;;;;4.00;0.33;;;;;19.30;100.00;100755.28;5019474;28;45540;-75
2022/10/24 10:27:37;;;;;;;;;4.67;1.00;;;;;19.30;100.00;100753.50;5048975;28;45507;-76
2022/10/24 10:30:12;;;;;;;;;2.67;0.33;;;;;19.26;100.00;100753.59;5044712;28;45496;-75
2022/10/24 10:32:59;;;;;;;;;2.67;0.00;;;;;19.19;100.00;100752.03;5054549;28;45495;-75
2022/10/24 10:36:04;;;;;;;;;5.33;1.33;;;;;19.18;100.00;100758.28;5062462;28;45397;-75
2022/10/24 10:38:35;;;;;;;;;0.67;0.67;;;;;19.23;100.00;100767.97;5051126;28;45632;-74
2022/10/24 10:41:24;;;;;;;;;2.00;1.00;;;;;19.30;100.00;100774.91;5050984;28;46200;-74
2022/10/24 10:43:56;;;;;;;;;3.00;0.67;;;;;19.43;100.00;100769.22;5036159;28;45499;-75
2022/10/24 10:46:37;;;;;;;;;1.00;1.00;;;;;19.50;100.00;100771.72;5054655;28;45256;-74
2022/10/24 10:49:22;;;;;;;;;7.00;1.67;;;;;19.50;100.00;100769.03;5026251;28;45586;-73
2022/10/24 10:52:12;;;;;;;;;5.33;0.67;;;;;19.43;100.00;100778.13;5037285;28;47647;-75
2022/10/24 10:55:05;;;;;;;;;0.33;0.33;;;;;19.38;100.00;100775.56;5047846;28;45553;-74
2022/10/24 10:57:48;;;;;;;;;0.33;0.00;;;;;19.42;100.00;100780.84;5047951;28;45527;-74
2022/10/24 11:00:19;;;;;;;;;3.00;1.00;;;;;19.47;100.00;100777.13;5054902;28;45300;-74
2022/10/24 11:03:06;;;;;;;;;1.00;0.67;;;;;19.55;100.00;100793.91;5037394;28;45637;-75
2022/10/24 11:05:50;;;;;;;;;0.00;0.00;;;;;19.66;100.00;100780.25;5034172;28;46324;-74
2022/10/24 11:08:30;;;;;;;;;1.00;0.67;;;;;19.80;100.00;100766.47;5056028;28;45376;-75
2022/10/24 11:11:02;;;;;;;;;3.67;0.67;;;;;19.84;100.00;100778.84;5055283;28;45340;-74
2022/10/24 11:13:53;;;;;;;;;3.67;0.67;;;;;19.86;100.00;100777.88;5037067;28;46834;-77
2022/10/24 11:16:25;;;;;;;;;0.67;0.67;;;;;19.82;100.00;100778.03;5038558;28;45311;-78
2022/10/24 11:18:55;;;;;;;;;5.00;4.00;;;;;19.73;100.00;100770.25;5036046;28;45503;-78
2022/10/24 11:21:24;;;;;;;;;7.00;0.00;;;;;19.66;100.00;100772.22;5036831;28;45599;-76
2022/10/24 11:23:55;;;;;;;;;1.00;1.00;;;;;19.70;100.00;100768.50;5038923;28;46475;-77
2022/10/24 11:26:45;;;;;;;;;1.00;1.00;;;;;19.84;100.00;100763.66;5047939;28;45337;-78